Time;durP1;ratioP1;P1;durP2;ratioP2;P2;SDS_P1;SDS_P2;PMS_P1;PMS_P2;Temp;Humidity;BMP_temperature;BMP_pressure;BME280_temperature;BME280_humidity;BME280_pressure;Samples;Min_cycle;Max_cycle;Signal;HPM_P1;HPM_P2
2022/07/05 00:02:26;;;;;;;11.50;2.05;;;13.70;99.90;;;;;;5041674;28;20021;-61
2022/07/05 00:04:53;;;;;;;10.40;2.05;;;13.80;99.90;;;;;;5049586;28;20031;-61
2022/07/05 00:07:21;;;;;;;10.10;2.40;;;13.80;99.90;;;;;;5036566;28;20113;-61
2022/07/05 00:09:56;;;;;;;10.90;1.77;;;13.80;99.90;;;;;;5032327;28;20036;-61
2022/07/05 00:12:31;;;;;;;9.60;2.83;;;13.80;99.90;;;;;;5042286;28;20033;-62
2022/07/05 00:15:00;;;;;;;12.50;2.28;;;13.90;99.80;;;;;;5053356;28;20104;-62
2022/07/05 00:17:27;;;;;;;15.80;2.10;;;13.90;99.90;;;;;;5062506;28;20048;-62
2022/07/05 00:19:55;;;;;;;12.88;2.92;;;14.00;99.90;;;;;;5045677;28;20029;-62
2022/07/05 00:22:22;;;;;;;9.52;1.75;;;14.00;99.80;;;;;;5053405;28;20099;-61
2022/07/05 00:24:50;;;;;;;9.15;1.92;;;13.90;99.30;;;;;;5053075;28;20037;-62
2022/07/05 00:27:17;;;;;;;12.68;1.75;;;13.90;99.50;;;;;;5052898;28;20478;-69
2022/07/05 00:29:45;;;;;;;7.93;1.58;;;13.80;99.00;;;;;;5053039;28;20028;-67
2022/07/05 00:32:12;;;;;;;16.65;3.38;;;13.90;99.00;;;;;;5049703;28;20025;-66
2022/07/05 00:34:39;;;;;;;9.85;1.70;;;14.00;99.10;;;;;;5049527;28;20036;-65
2022/07/05 00:37:06;;;;;;;8.35;2.20;;;14.00;99.20;;;;;;5046275;28;20728;-65
2022/07/05 00:39:34;;;;;;;8.18;1.42;;;14.10;99.40;;;;;;5044706;28;20060;-65
2022/07/05 00:42:02;;;;;;;7.10;1.25;;;14.10;99.10;;;;;;5051165;28;20021;-65
2022/07/05 00:44:32;;;;;;;11.05;1.75;;;14.20;99.30;;;;;;5050524;28;21961;-64
2022/07/05 00:47:00;;;;;;;13.48;2.15;;;14.20;98.60;;;;;;5050449;28;20029;-64
2022/07/05 00:49:27;;;;;;;12.30;1.60;;;14.30;98.40;;;;;;5043756;28;20025;-63
2022/07/05 00:51:54;;;;;;;8.93;1.65;;;14.20;98.40;;;;;;5053256;28;20078;-64
2022/07/05 00:54:22;;;;;;;8.80;1.70;;;14.30;97.40;;;;;;5052885;28;20048;-64
2022/07/05 00:56:49;;;;;;;21.95;10.15;;;14.40;97.70;;;;;;5046784;28;20032;-64
2022/07/05 00:59:16;;;;;;;6.53;2.15;;;14.50;97.50;;;;;;5036774;28;20029;-64
2022/07/05 01:01:44;;;;;;;11.57;2.90;;;14.50;96.80;;;;;;5030891;28;20025;-64
2022/07/05 01:04:12;;;;;;;10.88;2.25;;;14.60;96.70;;;;;;5036899;28;20021;-65
2022/07/05 01:06:43;;;;;;;6.32;2.72;;;14.70;96.40;;;;;;5030022;28;20405;-65
2022/07/05 01:09:15;;;;;;;6.82;1.23;;;14.70;96.40;;;;;;5038664;28;20029;-65
2022/07/05 01:11:47;;;;;;;6.28;2.95;;;14.80;95.50;;;;;;5049669;28;20124;-65
2022/07/05 01:14:18;;;;;;;7.45;1.35;;;14.90;95.80;;;;;;5047901;28;20013;-64
2022/07/05 01:16:46;;;;;;;4.38;1.10;;;15.00;95.80;;;;;;5050037;28;20406;-65
2022/07/05 01:19:14;;;;;;;6.72;1.15;;;15.10;94.70;;;;;;5051990;28;20017;-64
2022/07/05 01:21:47;;;;;;;9.35;3.58;;;15.10;94.40;;;;;;5052077;28;20482;-65
2022/07/05 01:24:16;;;;;;;7.65;1.73;;;15.20;94.70;;;;;;5051801;28;20070;-64
2022/07/05 01:26:49;;;;;;;8.35;1.77;;;15.30;94.20;;;;;;5030374;28;20072;-64
2022/07/05 01:29:16;;;;;;;12.68;2.53;;;15.30;94.40;;;;;;5034938;28;20021;-65
2022/07/05 01:31:44;;;;;;;7.78;2.88;;;15.30;94.60;;;;;;5051052;28;20025;-64
2022/07/05 01:34:12;;;;;;;10.05;4.63;;;15.30;94.60;;;;;;5061046;28;20385;-65
2022/07/05 01:36:40;;;;;;;6.55;1.73;;;15.30;94.50;;;;;;5048657;28;20474;-65
2022/07/05 01:39:08;;;;;;;5.90;1.73;;;15.20;94.80;;;;;;5048366;28;20064;-64
2022/07/05 01:41:36;;;;;;;5.53;1.20;;;15.20;94.40;;;;;;5067652;28;20077;-64
2022/07/05 01:44:04;;;;;;;6.05;1.25;;;15.10;94.70;;;;;;5055201;28;20020;-65
2022/07/05 01:46:36;;;;;;;6.93;1.02;;;15.00;95.50;;;;;;5057700;28;20030;-65
2022/07/05 01:49:13;;;;;;;5.53;2.10;;;14.90;96.00;;;;;;5033296;28;20036;-64
2022/07/05 01:51:51;;;;;;;9.70;1.10;;;14.80;96.70;;;;;;5042965;28;20032;-65
2022/07/05 01:54:19;;;;;;;10.55;1.27;;;14.80;95.80;;;;;;5044117;28;20032;-64
2022/07/05 01:56:47;;;;;;;8.30;1.58;;;14.80;95.80;;;;;;5044888;28;20025;-65
2022/07/05 01:59:14;;;;;;;4.88;1.23;;;14.90;96.50;;;;;;5056345;28;20112;-68
2022/07/05 02:01:42;;;;;;;15.05;7.53;;;14.90;94.80;;;;;;5049833;28;20037;-66
2022/07/05 02:04:11;;;;;;;12.25;5.78;;;15.00;95.70;;;;;;5058220;28;20025;-64
2022/07/05 02:06:38;;;;;;;7.53;1.42;;;15.10;95.10;;;;;;5064986;28;20054;-63
2022/07/05 02:09:07;;;;;;;5.93;1.23;;;15.10;93.60;;;;;;5047117;28;20021;-63
2022/07/05 02:11:35;;;;;;;7.15;1.20;;;15.10;93.50;;;;;;5060914;28;20025;-64
2022/07/05 02:14:03;;;;;;;6.32;1.48;;;15.00;93.40;;;;;;5041938;28;20478;-65
2022/07/05 02:16:30;;;;;;;7.68;1.38;;;15.10;93.80;;;;;;5044728;28;20506;-64
2022/07/05 02:18:58;;;;;;;3.65;0.82;;;15.00;93.30;;;;;;5031653;28;20030;-65
2022/07/05 02:21:25;;;;;;;4.97;1.08;;;15.00;92.60;;;;;;5036425;28;20114;-64
2022/07/05 02:23:52;;;;;;;5.57;0.80;;;15.00;92.20;;;;;;5049861;28;20027;-65
2022/07/05 02:26:20;;;;;;;4.45;0.75;;;15.10;92.30;;;;;;5049259;28;20037;-64
2022/07/05 02:28:47;;;;;;;3.22;0.60;;;15.20;92.50;;;;;;5031237;28;20033;-65
2022/07/05 02:31:16;;;;;;;1.98;0.55;;;15.20;91.70;;;;;;5049090;28;20029;-65
2022/07/05 02:33:43;;;;;;;1.58;0.40;;;15.10;91.70;;;;;;5046410;28;20170;-64
2022/07/05 02:36:13;;;;;;;2.70;0.70;;;15.10;92.10;;;;;;5046757;28;20017;-65
2022/07/05 02:38:41;;;;;;;6.80;1.10;;;15.10;93.20;;;;;;5056240;28;20592;-69
2022/07/05 02:41:10;;;;;;;4.47;0.60;;;15.00;93.70;;;;;;5057658;28;20442;-61
2022/07/05 02:43:38;;;;;;;8.80;1.00;;;14.90;94.10;;;;;;5052124;28;20033;-64
2022/07/05 02:46:07;;;;;;;4.38;0.82;;;14.80;94.50;;;;;;5041346;28;20030;-67
2022/07/05 02:48:35;;;;;;;5.50;0.90;;;14.80;95.00;;;;;;5049182;28;20033;-67
2022/07/05 02:51:04;;;;;;;4.90;1.02;;;14.80;95.60;;;;;;5063620;28;20036;-65
2022/07/05 02:53:31;;;;;;;4.00;0.90;;;14.90;94.30;;;;;;5046964;28;20021;-66
2022/07/05 02:55:58;;;;;;;7.40;0.85;;;15.00;94.10;;;;;;5050421;28;20104;-64
2022/07/05 02:58:25;;;;;;;9.70;1.02;;;15.10;94.20;;;;;;5055675;28;20057;-70
2022/07/05 03:00:53;;;;;;;6.28;1.02;;;15.10;93.90;;;;;;5054522;28;20025;-70
2022/07/05 03:03:20;;;;;;;10.00;1.48;;;15.20;93.50;;;;;;5042316;28;20702;-69
2022/07/05 03:05:47;;;;;;;5.75;1.15;;;15.30;94.10;;;;;;5051700;28;20052;-76
2022/07/05 03:08:14;;;;;;;5.28;1.27;;;15.30;93.50;;;;;;5059159;28;20028;-72
2022/07/05 03:10:41;;;;;;;1.83;0.80;;;15.40;93.70;;;;;;5048841;28;20033;-75
2022/07/05 03:13:09;;;;;;;8.20;1.27;;;15.50;93.70;;;;;;5051166;28;20489;-75
2022/07/05 03:15:36;;;;;;;9.65;1.48;;;15.50;93.40;;;;;;5046630;28;20056;-74
2022/07/05 03:18:03;;;;;;;5.47;1.38;;;15.60;93.50;;;;;;5054274;28;20086;-74
2022/07/05 03:20:31;;;;;;;7.32;1.50;;;15.60;94.00;;;;;;5059336;28;20021;-69
2022/07/05 03:22:58;;;;;;;9.10;1.77;;;15.70;93.40;;;;;;5062177;28;20024;-75
2022/07/05 03:25:25;;;;;;;3.67;0.85;;;15.70;92.50;;;;;;5049572;28;20091;-75
2022/07/05 03:27:53;;;;;;;9.27;1.20;;;15.70;93.00;;;;;;5049276;28;20024;-75
2022/07/05 03:30:20;;;;;;;9.70;1.35;;;15.70;93.00;;;;;;5061697;28;20021;-75
2022/07/05 03:32:47;;;;;;;9.85;1.35;;;15.70;93.00;;;;;;5042270;28;20064;-73
2022/07/05 03:35:14;;;;;;;5.53;1.55;;;15.70;92.80;;;;;;5041500;28;20043;-74
2022/07/05 03:37:42;;;;;;;11.95;2.95;;;15.80;92.90;;;;;;5062601;28;20510;-75
2022/07/05 03:40:09;;;;;;;5.45;1.20;;;15.70;92.90;;;;;;5054121;28;20021;-74
2022/07/05 03:42:37;;;;;;;14.43;1.90;;;15.60;92.90;;;;;;5053387;28;20021;-76
2022/07/05 03:45:04;;;;;;;11.05;1.63;;;15.60;92.90;;;;;;5056573;28;20059;-76
2022/07/05 03:47:32;;;;;;;4.38;1.40;;;15.40;93.30;;;;;;5047226;28;20021;-76
2022/07/05 03:49:59;;;;;;;9.48;1.83;;;15.30;94.00;;;;;;5068549;28;20054;-76
2022/07/05 03:52:26;;;;;;;14.80;2.15;;;15.20;94.80;;;;;;5057236;28;20017;-72
2022/07/05 03:54:54;;;;;;;9.85;2.33;;;15.10;94.70;;;;;;5054388;28;20501;-76
2022/07/05 03:57:22;;;;;;;14.70;3.28;;;15.00;95.20;;;;;;5053146;28;20013;-76
2022/07/05 03:59:49;;;;;;;13.88;2.13;;;15.00;94.90;;;;;;5060145;28;20397;-76
2022/07/05 04:02:16;;;;;;;10.52;1.58;;;14.90;95.50;;;;;;5043597;28;20726;-76
2022/07/05 04:04:43;;;;;;;11.32;3.20;;;14.90;95.20;;;;;;5057557;28;20025;-75
2022/07/05 04:07:11;;;;;;;11.23;2.17;;;14.90;95.10;;;;;;5055239;28;20084;-77
2022/07/05 04:09:38;;;;;;;10.75;1.95;;;14.90;95.20;;;;;;5059959;28;20017;-76
2022/07/05 04:12:05;;;;;;;15.82;1.95;;;15.00;94.50;;;;;;5056299;28;20029;-76
2022/07/05 04:14:33;;;;;;;8.20;2.95;;;15.00;93.90;;;;;;5064314;28;20048;-75
2022/07/05 04:17:00;;;;;;;10.32;1.50;;;15.10;93.60;;;;;;5049163;28;20036;-74
2022/07/05 04:19:27;;;;;;;8.93;1.55;;;15.10;94.00;;;;;;5056785;28;20029;-74
2022/07/05 04:21:55;;;;;;;16.27;2.10;;;15.10;94.00;;;;;;5054543;28;20017;-74
2022/07/05 04:24:22;;;;;;;10.27;1.60;;;15.20;92.10;;;;;;5037035;28;20038;-74
2022/07/05 04:26:49;;;;;;;9.82;1.40;;;15.30;92.40;;;;;;5031516;28;20021;-76
2022/07/05 04:29:16;;;;;;;11.18;1.40;;;15.40;91.90;;;;;;5049338;28;20033;-76
2022/07/05 04:31:44;;;;;;;13.70;1.42;;;15.50;91.90;;;;;;5064756;28;20029;-75
2022/07/05 04:34:11;;;;;;;6.40;2.13;;;15.60;91.10;;;;;;5049907;28;20024;-76
2022/07/05 04:36:40;;;;;;;10.43;1.48;;;15.60;91.20;;;;;;5058511;28;20355;-75
2022/07/05 04:39:08;;;;;;;11.80;2.80;;;15.60;90.90;;;;;;5062838;28;20477;-74
2022/07/05 04:41:35;;;;;;;6.18;1.63;;;15.60;91.10;;;;;;5061544;28;20389;-74
2022/07/05 04:44:03;;;;;;;5.07;1.00;;;15.60;91.20;;;;;;5035936;28;20044;-75
2022/07/05 04:46:31;;;;;;;6.57;2.60;;;15.70;91.30;;;;;;5057330;28;20035;-75
2022/07/05 04:48:58;;;;;;;11.07;2.22;;;15.70;91.50;;;;;;5054543;28;20389;-75
2022/07/05 04:51:25;;;;;;;6.72;1.30;;;15.60;91.70;;;;;;5046286;28;20025;-75
2022/07/05 04:53:53;;;;;;;7.55;2.55;;;15.60;91.40;;;;;;5043905;28;20059;-75
2022/07/05 04:56:20;;;;;;;6.43;1.20;;;15.60;91.70;;;;;;5062542;28;20435;-75
2022/07/05 04:58:47;;;;;;;11.35;1.38;;;15.60;91.70;;;;;;5053152;28;20029;-75
2022/07/05 05:01:15;;;;;;;10.60;2.90;;;15.60;90.90;;;;;;5052806;28;20031;-75
2022/07/05 05:03:42;;;;;;;8.95;1.35;;;15.50;91.30;;;;;;5054497;28;20032;-76
2022/07/05 05:06:09;;;;;;;5.00;1.38;;;15.50;91.50;;;;;;5065849;28;20055;-75
2022/07/05 05:08:36;;;;;;;10.52;1.58;;;15.40;91.50;;;;;;5063217;28;20025;-75
2022/07/05 05:11:05;;;;;;;11.13;1.50;;;15.40;91.70;;;;;;5055700;28;20409;-75
2022/07/05 05:13:32;;;;;;;9.98;1.95;;;15.50;91.20;;;;;;5053127;28;20043;-74
2022/07/05 05:15:59;;;;;;;7.65;1.05;;;15.50;91.30;;;;;;5063815;28;20013;-75
2022/07/05 05:18:27;;;;;;;8.48;1.05;;;15.40;91.10;;;;;;5058613;28;20059;-69
2022/07/05 05:20:54;;;;;;;9.93;1.35;;;15.40;91.00;;;;;;5058771;28;20051;-75
2022/07/05 05:23:25;;;;;;;8.32;1.52;;;15.40;91.60;;;;;;5051957;28;20025;-75
2022/07/05 05:25:52;;;;;;;10.68;1.70;;;15.30;91.80;;;;;;5049055;28;20124;-76
2022/07/05 05:28:19;;;;;;;4.30;0.93;;;15.30;92.20;;;;;;5054817;28;20713;-74
2022/07/05 05:30:47;;;;;;;9.10;2.38;;;15.20;92.40;;;;;;5045630;28;20436;-75
2022/07/05 05:33:14;;;;;;;9.10;1.83;;;15.20;92.50;;;;;;5056810;28;20025;-75
2022/07/05 05:35:42;;;;;;;7.78;1.58;;;15.10;92.80;;;;;;5058919;28;20052;-75
2022/07/05 05:38:09;;;;;;;8.38;1.52;;;15.00;92.90;;;;;;5050347;28;20585;-75
2022/07/05 05:40:37;;;;;;;10.45;1.65;;;14.90;93.40;;;;;;5057733;28;20788;-76
2022/07/05 05:43:05;;;;;;;6.55;1.05;;;14.80;93.30;;;;;;5060458;28;20488;-75
2022/07/05 05:45:32;;;;;;;10.00;1.40;;;14.70;93.80;;;;;;5051255;28;20051;-75
2022/07/05 05:48:00;;;;;;;11.63;1.83;;;14.70;93.90;;;;;;5064037;28;20013;-75
2022/07/05 05:50:33;;;;;;;7.38;1.63;;;14.60;94.20;;;;;;5055273;28;20024;-67
2022/07/05 05:53:01;;;;;;;12.73;1.70;;;14.50;94.40;;;;;;5055339;28;20088;-72
2022/07/05 05:55:30;;;;;;;7.10;1.48;;;14.50;94.40;;;;;;5065170;28;20354;-71
2022/07/05 05:58:18;;;;;;;7.88;1.13;;;14.50;94.50;;;;;;5047605;28;20502;-73
2022/07/05 06:00:50;;;;;;;4.18;1.23;;;14.50;94.70;;;;;;5050836;28;20520;-71
2022/07/05 06:03:22;;;;;;;6.70;1.02;;;14.50;94.50;;;;;;5051958;28;20075;-72
2022/07/05 06:05:50;;;;;;;7.03;1.98;;;14.50;94.80;;;;;;5047369;28;20036;-72
2022/07/05 06:08:18;;;;;;;6.78;2.13;;;14.50;95.00;;;;;;5061528;28;20524;-72
2022/07/05 06:10:46;;;;;;;6.07;1.20;;;14.50;94.70;;;;;;5052556;28;20036;-71
2022/07/05 06:13:14;;;;;;;6.80;1.33;;;14.50;94.40;;;;;;5062241;28;20042;-70
2022/07/05 06:15:43;;;;;;;8.50;3.47;;;14.40;94.80;;;;;;5047400;28;20033;-71
2022/07/05 06:18:12;;;;;;;6.35;1.17;;;14.40;95.40;;;;;;5061792;28;20044;-72
2022/07/05 06:20:40;;;;;;;7.15;1.45;;;14.20;96.00;;;;;;5058637;28;20094;-72
2022/07/05 06:23:08;;;;;;;5.40;1.10;;;14.10;96.50;;;;;;5053910;28;20025;-72
2022/07/05 06:25:36;;;;;;;10.35;2.13;;;14.00;97.30;;;;;;5049219;28;20135;-70
2022/07/05 06:28:06;;;;;;;15.75;4.78;;;13.90;97.60;;;;;;5061346;28;20366;-71
2022/07/05 06:30:38;;;;;;;9.80;3.20;;;13.80;98.00;;;;;;5056517;28;20052;-73
2022/07/05 06:33:06;;;;;;;12.32;3.92;;;13.80;98.20;;;;;;5043462;28;20390;-74
2022/07/05 06:35:33;;;;;;;24.15;8.57;;;13.70;98.20;;;;;;5061152;28;20050;-69
2022/07/05 06:38:06;;;;;;;20.13;7.82;;;13.70;98.60;;;;;;5038485;28;20025;-70
2022/07/05 06:40:35;;;;;;;12.10;5.03;;;13.60;98.60;;;;;;5057527;28;20024;-71
2022/07/05 06:43:05;;;;;;;12.50;5.70;;;13.60;98.60;;;;;;5054216;28;20021;-72
2022/07/05 06:45:33;;;;;;;15.90;5.88;;;13.50;98.70;;;;;;5063681;28;20400;-71
2022/07/05 06:48:06;;;;;;;18.10;8.23;;;13.50;98.70;;;;;;5052631;28;20024;-74
2022/07/05 06:50:39;;;;;;;10.52;4.35;;;13.50;98.70;;;;;;5057552;28;20013;-74
2022/07/05 06:53:07;;;;;;;17.90;9.38;;;13.40;98.80;;;;;;5053985;28;20025;-75
2022/07/05 06:55:34;;;;;;;9.88;5.15;;;13.40;98.80;;;;;;5052728;28;20083;-72
2022/07/05 06:58:09;;;;;;;8.82;4.65;;;13.30;98.80;;;;;;5054480;28;20027;-73
2022/07/05 07:00:37;;;;;;;10.35;2.75;;;13.30;98.90;;;;;;5056604;28;20618;-73
2022/07/05 07:03:04;;;;;;;17.60;6.50;;;13.30;98.90;;;;;;5050098;28;20497;-71
2022/07/05 07:05:31;;;;;;;11.45;3.15;;;13.30;98.90;;;;;;5053143;28;20036;-69
2022/07/05 07:10:44;;;;;;;10.20;3.78;;;13.20;98.80;;;;;;5061637;28;20075;-72
2022/07/05 07:13:11;;;;;;;9.90;2.53;;;13.20;98.90;;;;;;5052334;28;20021;-72
2022/07/05 07:15:40;;;;;;;7.28;3.50;;;13.20;98.70;;;;;;5051179;28;20071;-73
2022/07/05 07:18:08;;;;;;;13.82;8.32;;;13.20;98.60;;;;;;5047693;28;20052;-75
2022/07/05 07:20:35;;;;;;;11.07;6.55;;;13.20;98.40;;;;;;5046376;28;20020;-74
2022/07/05 07:23:02;;;;;;;14.10;3.10;;;13.10;98.50;;;;;;5059179;28;20029;-73
2022/07/05 07:25:30;;;;;;;10.35;2.53;;;13.00;98.50;;;;;;5057133;28;20076;-70
2022/07/05 07:27:57;;;;;;;6.68;1.70;;;13.00;98.60;;;;;;5044032;28;20660;-70
2022/07/05 07:30:26;;;;;;;14.77;1.73;;;12.90;98.70;;;;;;5042826;28;20025;-67
2022/07/05 07:32:54;;;;;;;9.93;2.67;;;12.90;98.70;;;;;;5039643;28;20021;-71
2022/07/05 07:35:22;;;;;;;13.98;2.03;;;12.80;98.80;;;;;;5042927;28;20440;-72
2022/07/05 07:37:49;;;;;;;10.45;1.70;;;12.80;98.80;;;;;;5045982;28;20485;-71
2022/07/05 07:40:16;;;;;;;14.07;1.90;;;12.80;98.70;;;;;;5043142;28;20543;-71
2022/07/05 07:42:43;;;;;;;14.55;4.03;;;12.80;98.70;;;;;;5042202;28;20119;-72
2022/07/05 07:45:11;;;;;;;9.00;3.00;;;12.80;98.80;;;;;;5046825;28;20383;-72
2022/07/05 07:47:38;;;;;;;13.32;3.08;;;12.80;98.90;;;;;;5039471;28;20024;-72
2022/07/05 07:50:06;;;;;;;8.98;4.45;;;12.80;98.90;;;;;;5039766;28;20064;-72
2022/07/05 07:52:34;;;;;;;10.00;3.83;;;12.80;99.00;;;;;;5042419;28;20101;-70
2022/07/05 07:55:02;;;;;;;11.02;3.72;;;12.70;99.10;;;;;;5036968;28;20413;-72
2022/07/05 07:57:29;;;;;;;9.48;3.63;;;12.70;99.30;;;;;;5045340;28;20056;-73
2022/07/05 07:59:56;;;;;;;10.02;2.92;;;12.60;99.40;;;;;;5046013;28;20068;-70
2022/07/05 08:02:24;;;;;;;10.35;3.22;;;12.70;99.50;;;;;;5042637;28;20557;-70
2022/07/05 08:04:52;;;;;;;11.40;3.08;;;12.60;99.50;;;;;;5042279;28;20045;-69
2022/07/05 08:07:19;;;;;;;7.47;2.53;;;12.60;99.50;;;;;;5049542;28;20105;-69
2022/07/05 08:09:47;;;;;;;10.07;2.10;;;12.60;99.50;;;;;;5042467;28;20020;-69
2022/07/05 08:12:14;;;;;;;11.70;2.38;;;12.60;99.50;;;;;;5044432;28;20481;-70
2022/07/05 08:14:42;;;;;;;12.50;2.28;;;12.50;99.40;;;;;;5044681;28;20022;-71
2022/07/05 08:17:10;;;;;;;13.07;2.58;;;12.50;99.40;;;;;;5046511;28;20044;-71
2022/07/05 08:22:23;;;;;;;10.60;2.42;;;12.50;99.70;;;;;;5043791;28;20112;-70
2022/07/05 08:24:51;;;;;;;9.77;2.75;;;12.50;99.60;;;;;;5042674;28;20067;-72
2022/07/05 08:27:18;;;;;;;17.23;2.63;;;12.40;99.60;;;;;;5043212;28;20032;-71
2022/07/05 08:29:46;;;;;;;7.40;4.15;;;12.40;99.70;;;;;;5046450;28;20025;-70
2022/07/05 08:32:13;;;;;;;14.88;8.75;;;12.40;99.80;;;;;;5042295;28;20032;-67
2022/07/05 08:34:41;;;;;;;10.02;4.63;;;12.40;99.70;;;;;;5045948;28;21831;-70
2022/07/05 08:37:08;;;;;;;12.48;3.65;;;12.40;99.70;;;;;;5045724;28;20606;-71
2022/07/05 08:39:36;;;;;;;10.07;4.28;;;12.40;99.70;;;;;;5045941;28;20025;-71
2022/07/05 08:42:08;;;;;;;12.35;3.20;;;12.40;99.80;;;;;;5064274;28;20032;-70
2022/07/05 08:44:38;;;;;;;8.77;3.20;;;12.40;99.60;;;;;;5054800;28;20498;-72
2022/07/05 08:47:10;;;;;;;13.57;3.63;;;12.40;99.70;;;;;;5063048;28;20032;-70
2022/07/05 08:49:42;;;;;;;5.78;1.70;;;12.40;99.60;;;;;;5053818;28;20065;-71
2022/07/05 08:52:14;;;;;;;9.93;3.00;;;12.40;99.60;;;;;;5046720;28;20033;-70
2022/07/05 08:54:41;;;;;;;8.00;3.47;;;12.50;99.60;;;;;;5049218;28;20022;-72
2022/07/05 08:57:09;;;;;;;7.78;2.22;;;12.50;99.50;;;;;;5063701;28;20116;-71
2022/07/05 08:59:39;;;;;;;7.93;3.33;;;12.40;99.40;;;;;;5053053;28;20013;-71
2022/07/05 09:02:08;;;;;;;6.82;3.05;;;12.40;99.50;;;;;;5065165;28;20016;-70
2022/07/05 09:04:45;;;;;;;10.93;2.55;;;12.40;99.50;;;;;;5061557;28;20436;-70
2022/07/05 09:07:16;;;;;;;4.43;1.92;;;12.40;99.80;;;;;;5055485;28;20021;-72
2022/07/05 09:09:43;;;;;;;6.95;2.42;;;12.40;99.60;;;;;;5049218;28;20583;-71
2022/07/05 09:12:13;;;;;;;8.30;2.47;;;12.40;99.60;;;;;;5048335;28;20022;-69
2022/07/05 09:14:41;;;;;;;4.80;1.60;;;12.40;99.80;;;;;;5052789;28;20021;-71
2022/07/05 09:17:08;;;;;;;6.00;1.70;;;12.40;99.60;;;;;;5046688;28;20120;-73
2022/07/05 09:19:36;;;;;;;6.13;1.42;;;12.40;99.60;;;;;;5045529;28;20052;-69
2022/07/05 09:22:08;;;;;;;10.13;1.60;;;12.40;99.60;;;;;;5044865;28;20808;-71
2022/07/05 09:24:45;;;;;;;11.40;2.42;;;12.40;99.70;;;;;;5045194;28;20028;-73
2022/07/05 09:27:13;;;;;;;6.15;1.45;;;12.40;99.80;;;;;;5042141;28;20417;-71
2022/07/05 09:29:53;;;;;;;7.53;2.20;;;12.30;99.80;;;;;;5049772;28;20029;-70
2022/07/05 09:32:30;;;;;;;13.30;2.97;;;12.30;99.80;;;;;;5048763;28;20021;-70
2022/07/05 09:35:18;;;;;;;10.63;1.67;;;12.40;99.90;;;;;;5050321;28;20053;-66
2022/07/05 09:37:47;;;;;;;17.83;2.45;;;12.50;99.90;;;;;;5051022;28;20021;-72
2022/07/05 09:40:14;;;;;;;9.63;2.50;;;12.50;99.80;;;;;;5046526;28;20681;-73
2022/07/05 09:42:41;;;;;;;13.02;2.25;;;12.50;99.60;;;;;;5050993;28;20028;-71
2022/07/05 09:45:09;;;;;;;12.80;2.03;;;12.50;99.70;;;;;;5043875;28;20032;-71
2022/07/05 09:47:36;;;;;;;9.35;2.22;;;12.50;99.80;;;;;;5048577;28;20025;-70
2022/07/05 09:50:05;;;;;;;11.65;3.00;;;12.60;99.80;;;;;;5045471;28;20024;-69
2022/07/05 09:52:40;;;;;;;12.50;1.38;;;12.80;99.30;;;;;;5048358;28;20499;-71
2022/07/05 09:55:06;;;;;;;;;;;12.90;99.00;;;;;;5047401;28;20029;-72
2022/07/05 09:57:41;;;;;;;11.07;1.65;;;13.00;98.40;;;;;;5050867;28;20366;-72
2022/07/05 10:00:20;;;;;;;14.00;1.60;;;13.10;98.20;;;;;;5049438;28;20033;-71
2022/07/05 10:02:53;;;;;;;14.00;3.88;;;13.20;97.70;;;;;;5049040;28;20025;-76
2022/07/05 10:05:25;;;;;;;10.60;2.88;;;13.30;97.20;;;;;;5047743;28;20041;-75
2022/07/05 10:07:56;;;;;;;13.95;2.08;;;13.30;96.70;;;;;;5045513;28;20051;-74
2022/07/05 10:10:25;;;;;;;16.75;2.60;;;13.40;96.20;;;;;;5050954;28;20023;-75
2022/07/05 10:12:56;;;;;;;7.00;1.13;;;13.50;95.80;;;;;;5046931;28;20075;-74
2022/07/05 10:15:26;;;;;;;7.68;1.50;;;13.50;95.40;;;;;;5048166;28;20028;-75
2022/07/05 10:18:10;;;;;;;14.05;2.33;;;13.60;95.50;;;;;;5044744;28;20596;-75
2022/07/05 10:20:47;;;;;;;7.57;1.92;;;13.60;95.40;;;;;;5047286;28;20060;-75
2022/07/05 10:23:17;;;;;;;8.98;0.90;;;13.60;95.40;;;;;;5048936;28;20032;-75
2022/07/05 10:25:49;;;;;;;6.15;0.88;;;13.60;95.70;;;;;;5056740;28;20064;-71
2022/07/05 10:28:18;;;;;;;11.48;1.48;;;13.60;95.70;;;;;;5052881;28;20021;-71
2022/07/05 10:30:49;;;;;;;8.65;1.75;;;13.60;95.60;;;;;;5046748;28;20482;-74
2022/07/05 10:33:24;;;;;;;9.27;2.17;;;13.60;95.70;;;;;;5045549;28;20072;-73
2022/07/05 10:35:53;;;;;;;15.18;1.15;;;13.60;95.70;;;;;;5041395;28;20044;-74
2022/07/05 10:38:20;;;;;;;7.15;1.17;;;13.60;95.80;;;;;;5039321;28;20025;-73
2022/07/05 10:40:53;;;;;;;5.53;1.27;;;13.60;95.60;;;;;;5052220;28;20081;-76
2022/07/05 10:43:26;;;;;;;10.73;1.67;;;13.60;95.60;;;;;;5047080;28;20037;-73
2022/07/05 10:45:53;;;;;;;10.55;1.58;;;13.60;95.50;;;;;;5043862;28;20063;-74
2022/07/05 10:48:23;;;;;;;12.57;1.77;;;13.60;95.60;;;;;;5050663;28;20017;-74
2022/07/05 10:51:10;;;;;;;9.98;2.15;;;13.60;95.60;;;;;;5048981;28;20074;-73
2022/07/05 10:53:37;;;;;;;9.60;1.65;;;13.70;95.50;;;;;;5052097;28;20040;-73
2022/07/05 10:56:04;;;;;;;7.68;2.25;;;13.70;95.20;;;;;;5046948;28;20473;-70
2022/07/05 10:58:36;;;;;;;6.30;1.25;;;13.70;95.40;;;;;;5049000;28;20508;-70
2022/07/05 11:01:21;;;;;;;10.00;1.45;;;13.70;95.40;;;;;;5048362;28;20362;-73
2022/07/05 11:04:07;;;;;;;8.07;1.52;;;13.70;95.40;;;;;;5051751;28;20038;-75
2022/07/05 11:06:45;;;;;;;9.55;1.20;;;13.70;95.20;;;;;;5048458;28;20126;-75
2022/07/05 11:09:13;;;;;;;8.40;1.15;;;13.70;95.20;;;;;;5038905;28;20029;-75
2022/07/05 11:11:45;;;;;;;9.48;1.30;;;13.70;95.20;;;;;;5049108;28;20025;-72
2022/07/05 11:14:25;;;;;;;9.18;1.42;;;13.70;95.10;;;;;;5048137;28;20063;-73
2022/07/05 11:17:16;;;;;;;8.27;1.45;;;13.70;94.90;;;;;;5047107;28;20052;-73
2022/07/05 11:20:10;;;;;;;10.02;1.58;;;13.70;95.10;;;;;;5044269;28;20040;-73
2022/07/05 11:22:41;;;;;;;14.05;1.55;;;13.70;95.10;;;;;;5042315;28;20037;-75
2022/07/05 11:25:10;;;;;;;9.10;1.27;;;13.70;94.80;;;;;;5048503;28;20040;-73
2022/07/05 11:28:07;;;;;;;19.35;2.15;;;13.70;94.80;;;;;;5047254;28;20031;-74
2022/07/05 11:30:51;;;;;;;9.57;1.30;;;13.70;94.50;;;;;;5047183;28;20076;-74
2022/07/05 11:33:44;;;;;;;11.38;1.60;;;13.70;94.60;;;;;;5041515;28;20498;-72
2022/07/05 11:36:28;;;;;;;8.35;2.75;;;13.70;94.50;;;;;;5038199;28;20104;-73
2022/07/05 11:39:16;;;;;;;10.13;2.13;;;13.60;94.60;;;;;;5039266;28;20079;-67
2022/07/05 11:41:46;;;;;;;5.28;1.10;;;13.60;94.80;;;;;;5044952;28;20052;-70
2022/07/05 11:44:14;;;;;;;7.65;1.58;;;13.60;94.90;;;;;;5042262;28;20025;-69
2022/07/05 11:46:45;;;;;;;7.53;1.67;;;13.50;95.00;;;;;;5045365;28;20098;-70
2022/07/05 11:49:12;;;;;;;6.10;1.13;;;13.50;94.90;;;;;;5042231;28;20028;-70
2022/07/05 11:51:39;;;;;;;4.82;1.00;;;13.50;95.10;;;;;;5037355;28;20028;-70
2022/07/05 11:54:09;;;;;;;6.93;0.95;;;13.50;95.00;;;;;;5043575;28;20585;-69
2022/07/05 11:56:37;;;;;;;8.85;1.20;;;13.40;95.10;;;;;;5043268;28;20032;-69
2022/07/05 11:59:25;;;;;;;7.45;1.48;;;13.40;95.30;;;;;;5045143;28;20120;-68
2022/07/05 12:01:53;;;;;;;7.47;1.38;;;13.40;95.30;;;;;;5043600;28;20025;-70
2022/07/05 12:04:31;;;;;;;5.03;1.05;;;13.40;95.20;;;;;;5045334;28;20029;-70
2022/07/05 12:06:59;;;;;;;8.50;1.23;;;13.40;95.30;;;;;;5047488;28;20037;-68
2022/07/05 12:15:10;;;;;;;9.68;2.10;;;13.30;95.30;;;;;;5050320;28;20045;-70
2022/07/05 12:17:38;;;;;;;5.43;1.23;;;13.30;95.40;;;;;;5049714;28;20037;-68
2022/07/05 12:20:11;;;;;;;4.22;1.25;;;13.20;95.60;;;;;;5037225;28;20108;-70
2022/07/05 12:22:39;;;;;;;8.30;1.00;;;13.10;95.70;;;;;;5038349;28;20025;-66
2022/07/05 12:25:11;;;;;;;7.75;1.02;;;13.10;95.80;;;;;;5039181;28;20045;-68
2022/07/05 12:27:40;;;;;;;12.57;4.15;;;13.10;96.00;;;;;;5039406;28;20094;-68
2022/07/05 12:30:09;;;;;;;6.45;1.23;;;13.10;96.00;;;;;;5033756;28;20024;-68
2022/07/05 12:33:01;;;;;;;8.35;1.35;;;13.10;95.90;;;;;;5041275;28;20441;-68
2022/07/05 12:35:31;;;;;;;9.13;1.05;;;13.10;95.80;;;;;;5041211;28;20481;-70
2022/07/05 12:38:06;;;;;;;5.35;1.20;;;13.10;95.90;;;;;;5044074;28;20029;-68
2022/07/05 12:40:34;;;;;;;7.47;0.93;;;13.00;96.00;;;;;;5045318;28;20056;-68
2022/07/05 12:43:15;;;;;;;7.28;1.33;;;12.80;96.10;;;;;;5047682;28;20414;-68
2022/07/05 12:45:44;;;;;;;5.72;1.85;;;12.80;96.30;;;;;;5042738;28;20163;-70
2022/07/05 12:48:12;;;;;;;9.00;1.83;;;12.70;96.40;;;;;;5045706;28;20090;-69
2022/07/05 12:50:52;;;;;;;10.98;2.40;;;12.60;96.60;;;;;;5046292;28;20029;-70
2022/07/05 12:58:57;;;;;;;5.80;1.42;;;12.50;97.10;;;;;;5045135;28;20397;-70
2022/07/05 13:01:28;;;;;;;5.80;1.52;;;12.50;97.20;;;;;;5047539;28;20025;-70
2022/07/05 13:04:15;;;;;;;6.13;2.13;;;12.50;97.30;;;;;;5047464;28;20013;-68
2022/07/05 13:06:54;;;;;;;11.93;1.83;;;12.50;97.40;;;;;;5042439;28;20036;-69
2022/07/05 13:09:34;;;;;;;9.95;2.58;;;12.40;97.40;;;;;;5046324;28;20072;-69
2022/07/05 13:12:11;;;;;;;7.78;2.42;;;12.40;97.40;;;;;;5043496;28;20090;-69
2022/07/05 13:14:44;;;;;;;7.97;1.73;;;12.40;97.50;;;;;;5046296;28;20378;-69